Time;durP1;ratioP1;P1;durP2;ratioP2;P2;SDS_P1;SDS_P2;PMS_P1;PMS_P2;Temp;Humidity;BMP_temperature;BMP_pressure;BME280_temperature;BME280_humidity;BME280_pressure;Samples;Min_cycle;Max_cycle;Signal;HPM_P1;HPM_P2
2021/09/25 00:01:17;;;;;;;7.43;4.83;;;14.60;1.00;;;;;;5012250;28;20203;-64
2021/09/25 00:03:43;;;;;;;7.10;5.47;;;14.60;1.00;;;;;;5012400;28;20253;-65
2021/09/25 00:06:10;;;;;;;8.53;5.63;;;14.60;1.00;;;;;;5011936;28;20634;-65
2021/09/25 00:08:38;;;;;;;7.23;5.20;;;14.60;1.00;;;;;;5012254;28;20353;-65
2021/09/25 00:11:05;;;;;;;8.50;5.00;;;14.60;1.00;;;;;;5012757;28;20280;-65
2021/09/25 00:13:32;;;;;;;6.83;4.80;;;14.50;1.00;;;;;;5012591;28;20207;-65
2021/09/25 00:15:59;;;;;;;8.03;5.27;;;14.50;1.00;;;;;;5012396;28;20273;-64
2021/09/25 00:18:25;;;;;;;7.70;4.83;;;14.50;1.00;;;;;;5012931;28;20622;-65
2021/09/25 00:20:52;;;;;;;8.13;5.30;;;14.50;1.00;;;;;;5012350;28;20214;-65
2021/09/25 00:23:19;;;;;;;7.03;5.43;;;14.50;1.00;;;;;;5012109;28;20210;-65
2021/09/25 00:25:47;;;;;;;8.00;5.77;;;14.40;1.00;;;;;;5011992;28;20207;-65
2021/09/25 00:28:13;;;;;;;7.50;5.50;;;14.40;1.00;;;;;;5015792;28;20285;-65
2021/09/25 00:30:40;;;;;;;8.90;5.83;;;14.40;1.00;;;;;;5016066;28;20741;-64
2021/09/25 00:33:06;;;;;;;10.27;5.57;;;14.40;1.00;;;;;;5016248;28;20262;-64
2021/09/25 00:35:33;;;;;;;7.53;5.83;;;14.40;1.00;;;;;;5015755;28;20215;-64
2021/09/25 00:38:00;;;;;;;8.23;5.33;;;14.40;1.00;;;;;;5015470;28;20781;-65
2021/09/25 00:40:26;;;;;;;7.37;5.70;;;14.40;1.00;;;;;;5015817;28;20207;-64
2021/09/25 00:42:54;;;;;;;9.57;6.33;;;14.40;1.00;;;;;;5015738;28;20207;-64
2021/09/25 00:45:22;;;;;;;8.73;6.00;;;14.30;1.00;;;;;;5015251;28;20218;-64
2021/09/25 00:47:49;;;;;;;9.87;6.73;;;14.30;1.00;;;;;;5015525;28;20230;-64
2021/09/25 00:50:16;;;;;;;11.40;6.17;;;14.30;1.00;;;;;;5015477;28;20741;-65
2021/09/25 00:52:43;;;;;;;10.23;5.87;;;14.30;1.00;;;;;;5015759;28;20261;-64
2021/09/25 00:55:12;;;;;;;9.20;6.20;;;14.20;1.00;;;;;;5015238;28;20207;-65
2021/09/25 00:57:39;;;;;;;9.37;6.00;;;14.20;6.90;;;;;;5015442;28;20285;-65
2021/09/25 01:00:09;;;;;;;10.73;6.20;;;14.20;1.90;;;;;;5015696;28;20215;-65
2021/09/25 01:02:36;;;;;;;9.27;6.40;;;14.20;6.20;;;;;;5015651;28;20215;-65
2021/09/25 01:05:04;;;;;;;7.80;6.10;;;14.20;1.00;;;;;;5015661;28;20210;-65
2021/09/25 01:07:31;;;;;;;9.43;6.20;;;14.20;6.70;;;;;;5015131;28;20227;-64
2021/09/25 01:09:58;;;;;;;10.03;6.30;;;14.10;18.00;;;;;;5015261;28;20203;-64
2021/09/25 01:12:24;;;;;;;9.43;6.30;;;14.10;25.90;;;;;;5014950;28;20211;-65
2021/09/25 01:14:51;;;;;;;8.40;6.33;;;14.10;30.70;;;;;;5014783;28;20288;-65
2021/09/25 01:17:20;;;;;;;11.13;5.90;;;14.10;47.40;;;;;;5014836;28;20714;-65
2021/09/25 01:19:47;;;;;;;10.23;6.30;;;14.10;38.10;;;;;;5015098;28;20242;-64
2021/09/25 01:22:15;;;;;;;8.40;6.13;;;14.10;39.50;;;;;;5014983;28;20580;-64
2021/09/25 01:24:42;;;;;;;8.70;6.00;;;14.00;36.50;;;;;;5014451;28;20672;-64
2021/09/25 01:27:09;;;;;;;13.87;7.10;;;14.10;35.10;;;;;;5014949;28;20349;-64
2021/09/25 01:29:36;;;;;;;10.63;6.43;;;14.10;26.10;;;;;;5014789;28;20265;-64
2021/09/25 01:32:04;;;;;;;10.63;6.33;;;14.00;28.70;;;;;;5014993;28;20210;-64
2021/09/25 01:34:31;;;;;;;12.33;6.80;;;14.00;30.70;;;;;;5014641;28;20253;-64
2021/09/25 01:36:58;;;;;;;11.73;7.00;;;14.00;36.60;;;;;;5014607;28;20599;-65
2021/09/25 01:39:26;;;;;;;11.53;6.97;;;14.00;39.50;;;;;;5013699;28;20310;-65
2021/09/25 01:41:52;;;;;;;9.73;6.40;;;14.00;39.30;;;;;;5014874;28;20587;-64
2021/09/25 01:44:19;;;;;;;11.53;6.83;;;14.00;31.20;;;;;;5014732;28;20210;-65
2021/09/25 01:46:46;;;;;;;10.70;6.27;;;14.00;25.20;;;;;;5014160;28;20280;-64
2021/09/25 01:49:13;;;;;;;13.17;7.00;;;13.90;40.10;;;;;;5014487;28;20223;-64
2021/09/25 01:51:39;;;;;;;11.07;7.20;;;13.80;52.40;;;;;;5014316;28;20268;-65
2021/09/25 01:54:07;;;;;;;9.07;6.23;;;13.80;84.80;;;;;;5014299;28;20221;-64
2021/09/25 01:56:35;;;;;;;9.90;6.20;;;13.80;96.70;;;;;;5013747;28;20890;-64
2021/09/25 01:59:01;;;;;;;11.57;6.90;;;13.70;99.90;;;;;;5014207;28;20282;-64
2021/09/25 02:01:28;;;;;;;12.50;7.43;;;13.70;99.90;;;;;;5014401;28;20240;-64
2021/09/25 02:03:55;;;;;;;10.80;6.43;;;13.60;99.90;;;;;;5014294;28;20207;-65
2021/09/25 02:06:22;;;;;;;11.63;7.37;;;13.60;99.90;;;;;;5013738;28;20214;-64
2021/09/25 02:08:48;;;;;;;10.63;6.90;;;13.60;99.90;;;;;;5014064;28;20241;-65
2021/09/25 02:11:15;;;;;;;12.17;7.50;;;13.60;99.90;;;;;;5014326;28;20215;-64
2021/09/25 02:13:43;;;;;;;13.13;7.50;;;13.60;99.90;;;;;;5013955;28;20268;-65
2021/09/25 02:16:10;;;;;;;11.87;6.97;;;13.60;99.90;;;;;;5013687;28;20218;-64
2021/09/25 02:18:37;;;;;;;12.27;6.87;;;13.60;99.90;;;;;;5013914;28;20230;-64
2021/09/25 02:21:05;;;;;;;12.57;7.80;;;13.60;99.90;;;;;;5013829;28;20588;-64
2021/09/25 02:23:32;;;;;;;11.50;7.43;;;13.60;99.90;;;;;;5014062;28;20207;-64
2021/09/25 02:25:59;;;;;;;12.50;8.07;;;13.60;99.90;;;;;;5013565;28;20298;-64
2021/09/25 02:28:26;;;;;;;14.50;8.30;;;13.60;99.90;;;;;;5013701;28;20322;-64
2021/09/25 02:30:54;;;;;;;14.57;8.23;;;13.60;99.90;;;;;;5013679;28;20203;-64
2021/09/25 02:33:21;;;;;;;12.73;8.77;;;13.60;99.90;;;;;;5013688;28;20262;-64
2021/09/25 02:35:49;;;;;;;14.57;8.80;;;13.60;99.90;;;;;;5013095;28;20647;-64
2021/09/25 02:38:16;;;;;;;14.53;8.17;;;13.60;99.90;;;;;;5013754;28;20227;-64
2021/09/25 02:40:43;;;;;;;13.80;8.27;;;13.60;99.90;;;;;;5013390;28;20682;-64
2021/09/25 02:43:10;;;;;;;12.33;8.20;;;13.60;99.90;;;;;;5013559;28;20622;-64
2021/09/25 02:45:37;;;;;;;11.90;8.13;;;13.60;99.90;;;;;;5013141;28;20210;-64
2021/09/25 02:48:06;;;;;;;14.13;8.20;;;13.70;99.90;;;;;;5013151;28;20227;-64
2021/09/25 02:50:32;;;;;;;12.40;7.80;;;13.70;99.90;;;;;;5012590;28;20207;-64
2021/09/25 02:52:59;;;;;;;14.70;7.90;;;13.70;99.90;;;;;;5013304;28;20210;-64
2021/09/25 02:55:26;;;;;;;13.07;8.07;;;13.80;99.90;;;;;;5013094;28;20234;-64
2021/09/25 02:57:53;;;;;;;13.73;8.07;;;13.80;99.90;;;;;;5013154;28;20285;-64
2021/09/25 03:00:21;;;;;;;13.57;8.30;;;13.80;99.90;;;;;;5013178;28;20626;-64
2021/09/25 03:02:48;;;;;;;12.80;8.03;;;13.80;99.90;;;;;;5012928;28;20202;-64
2021/09/25 03:05:16;;;;;;;12.37;8.10;;;13.90;99.90;;;;;;5012934;28;20300;-64
2021/09/25 03:07:43;;;;;;;11.77;7.73;;;13.90;99.90;;;;;;5013041;28;20779;-64
2021/09/25 03:10:11;;;;;;;11.17;7.37;;;13.90;99.90;;;;;;5013042;28;20214;-64
2021/09/25 03:12:37;;;;;;;11.60;7.87;;;13.90;99.90;;;;;;5012902;28;20688;-65
2021/09/25 03:15:06;;;;;;;13.27;7.87;;;13.90;99.90;;;;;;5012342;28;20207;-64
2021/09/25 03:17:33;;;;;;;12.60;7.67;;;13.90;91.90;;;;;;5013080;28;20244;-64
2021/09/25 03:19:59;;;;;;;11.30;7.47;;;14.00;69.70;;;;;;5012812;28;20207;-64
2021/09/25 03:22:27;;;;;;;12.67;7.53;;;14.00;58.70;;;;;;5012958;28;20254;-65
2021/09/25 03:24:54;;;;;;;12.97;8.17;;;14.00;35.30;;;;;;5012297;28;20218;-65
2021/09/25 03:27:22;;;;;;;11.80;7.13;;;14.00;23.10;;;;;;5012679;28;20227;-65
2021/09/25 03:29:49;;;;;;;11.23;7.43;;;14.10;1.00;;;;;;5012449;28;20222;-65
2021/09/25 03:32:15;;;;;;;12.93;8.00;;;14.10;1.00;;;;;;5012805;28;20207;-64
2021/09/25 03:34:42;;;;;;;12.47;7.47;;;14.10;1.00;;;;;;5012429;28;20261;-65
2021/09/25 03:37:10;;;;;;;16.27;7.97;;;14.10;1.00;;;;;;5012539;28;20257;-65
2021/09/25 03:39:38;;;;;;;15.63;8.43;;;14.10;1.00;;;;;;5012593;28;20203;-64
2021/09/25 03:42:04;;;;;;;12.93;7.83;;;14.10;1.00;;;;;;5012398;28;20207;-65
2021/09/25 03:44:31;;;;;;;14.33;8.30;;;14.10;1.00;;;;;;5012179;28;20264;-64
2021/09/25 03:46:58;;;;;;;12.50;8.30;;;14.20;1.00;;;;;;5012370;28;20281;-64
2021/09/25 03:49:24;;;;;;;13.33;8.13;;;14.10;1.00;;;;;;5012466;28;20227;-64
2021/09/25 03:51:51;;;;;;;17.50;11.70;;;14.10;1.00;;;;;;5012427;28;20272;-64
2021/09/25 03:54:18;;;;;;;16.93;8.77;;;14.20;1.00;;;;;;5012361;28;20202;-64
2021/09/25 03:56:46;;;;;;;11.97;7.80;;;14.20;1.00;;;;;;5011763;28;20219;-65
2021/09/25 03:59:12;;;;;;;15.07;7.63;;;14.20;1.00;;;;;;5012293;28;20215;-65
2021/09/25 04:01:39;;;;;;;10.77;7.47;;;14.20;1.00;;;;;;5012126;28;20237;-65
2021/09/25 04:04:06;;;;;;;13.43;7.90;;;14.20;1.00;;;;;;5012278;28;20620;-64
2021/09/25 04:06:33;;;;;;;13.83;7.50;;;14.20;1.00;;;;;;5011987;28;20206;-64
2021/09/25 04:09:00;;;;;;;10.83;7.43;;;14.20;1.00;;;;;;5012014;28;20223;-65
2021/09/25 04:11:27;;;;;;;11.60;7.97;;;14.20;1.00;;;;;;5012056;28;20242;-64
2021/09/25 04:13:55;;;;;;;9.73;6.57;;;14.20;1.00;;;;;;5012344;28;20207;-65
2021/09/25 04:16:23;;;;;;;11.33;7.17;;;14.20;1.00;;;;;;5011689;28;20218;-64
2021/09/25 04:18:49;;;;;;;13.03;7.53;;;14.30;1.00;;;;;;5012203;28;20227;-64
2021/09/25 04:21:16;;;;;;;13.40;8.03;;;14.20;1.00;;;;;;5011924;28;20671;-64
2021/09/25 04:23:43;;;;;;;12.30;7.83;;;14.20;1.00;;;;;;5012109;28;20306;-64
2021/09/25 04:26:09;;;;;;;13.20;8.13;;;14.30;1.00;;;;;;5011461;28;20257;-64
2021/09/25 04:28:36;;;;;;;10.20;7.13;;;14.30;1.00;;;;;;5011805;28;20223;-65
2021/09/25 04:31:04;;;;;;;12.30;7.90;;;14.30;1.00;;;;;;5012056;28;20214;-64
2021/09/25 04:33:31;;;;;;;11.73;7.70;;;14.30;1.00;;;;;;5012039;28;20261;-64
2021/09/25 04:35:57;;;;;;;13.13;8.30;;;14.30;99.90;;;;;;5011636;28;20215;-64
2021/09/25 04:38:24;;;;;;;12.33;7.57;;;14.30;99.90;;;;;;5011658;28;20231;-64
2021/09/25 04:40:51;;;;;;;11.67;7.97;;;14.30;99.90;;;;;;5011856;28;20218;-64
2021/09/25 04:43:17;;;;;;;14.17;7.80;;;14.30;99.90;;;;;;5011821;28;20207;-64
2021/09/25 04:45:44;;;;;;;11.73;7.70;;;14.40;99.90;;;;;;5011520;28;20234;-65
2021/09/25 04:48:12;;;;;;;13.63;7.87;;;14.40;99.90;;;;;;5011583;28;20227;-64
2021/09/25 04:50:39;;;;;;;13.13;7.97;;;14.30;99.90;;;;;;5011737;28;20265;-64
2021/09/25 04:53:07;;;;;;;14.30;7.80;;;14.40;99.90;;;;;;5011576;28;20203;-65
2021/09/25 04:55:34;;;;;;;10.43;8.17;;;14.40;99.90;;;;;;5011449;28;20230;-64
2021/09/25 04:58:01;;;;;;;12.77;8.00;;;14.40;99.90;;;;;;5011479;28;20239;-65
2021/09/25 05:00:27;;;;;;;14.40;8.20;;;14.40;99.90;;;;;;5011740;28;20579;-64
2021/09/25 05:02:54;;;;;;;11.87;7.87;;;14.40;99.90;;;;;;5011507;28;20589;-65
2021/09/25 05:05:22;;;;;;;12.27;7.63;;;14.40;99.90;;;;;;5011227;28;20207;-64
2021/09/25 05:07:49;;;;;;;14.13;8.43;;;14.40;99.90;;;;;;5011397;28;20649;-65
2021/09/25 05:10:16;;;;;;;14.00;7.53;;;14.40;99.90;;;;;;5011640;28;20226;-65
2021/09/25 05:12:43;;;;;;;12.20;7.80;;;14.40;99.90;;;;;;5011968;28;20215;-65
2021/09/25 05:15:11;;;;;;;13.63;8.80;;;14.40;99.90;;;;;;5014936;28;20269;-64
2021/09/25 05:17:38;;;;;;;12.67;8.47;;;14.40;99.90;;;;;;5014955;28;20285;-64
2021/09/25 05:20:06;;;;;;;12.83;8.03;;;14.40;99.90;;;;;;5014999;28;20230;-64
2021/09/25 05:22:35;;;;;;;13.57;8.27;;;14.40;99.90;;;;;;5014803;28;20211;-64
2021/09/25 05:25:03;;;;;;;13.90;8.70;;;14.40;99.90;;;;;;5014602;28;20704;-64
2021/09/25 05:27:30;;;;;;;12.63;8.00;;;14.40;99.90;;;;;;5014770;28;20719;-64
2021/09/25 05:29:56;;;;;;;12.23;8.47;;;14.40;99.90;;;;;;5014952;28;20285;-64
2021/09/25 05:32:23;;;;;;;14.97;8.50;;;14.40;99.90;;;;;;5020378;28;20210;-64
2021/09/25 05:34:50;;;;;;;13.90;8.63;;;14.40;99.90;;;;;;5033839;28;20674;-65
2021/09/25 05:37:17;;;;;;;14.40;9.77;;;14.40;99.90;;;;;;5034265;28;20280;-64
2021/09/25 05:39:45;;;;;;;13.83;9.00;;;14.40;99.90;;;;;;5034265;28;20680;-65
2021/09/25 05:42:14;;;;;;;15.60;9.17;;;14.40;99.90;;;;;;5034315;28;20241;-64
2021/09/25 05:44:44;;;;;;;15.00;9.23;;;14.40;1.00;;;;;;5033886;28;20256;-65
2021/09/25 05:47:12;;;;;;;12.87;9.40;;;14.40;1.00;;;;;;5034071;28;20226;-65
2021/09/25 05:49:38;;;;;;;13.33;9.40;;;14.50;99.90;;;;;;5034184;28;20746;-65
2021/09/25 05:52:08;;;;;;;16.03;9.50;;;14.50;99.90;;;;;;5034432;28;20214;-64
2021/09/25 05:54:35;;;;;;;14.50;9.10;;;14.50;99.90;;;;;;5033711;28;20202;-65
2021/09/25 05:57:03;;;;;;;17.17;10.20;;;14.50;99.90;;;;;;5033808;28;20729;-65
2021/09/25 05:59:30;;;;;;;13.67;8.90;;;14.50;99.90;;;;;;5033954;28;20206;-65
2021/09/25 06:01:56;;;;;;;13.57;9.00;;;14.50;99.90;;;;;;5033862;28;20214;-65
2021/09/25 06:04:23;;;;;;;13.77;9.13;;;14.50;99.90;;;;;;5034083;28;20210;-66
2021/09/25 06:06:50;;;;;;;14.20;9.47;;;14.50;99.90;;;;;;5033524;28;20236;-65
2021/09/25 06:09:17;;;;;;;13.77;8.87;;;14.60;99.90;;;;;;5033812;28;20641;-66
2021/09/25 06:11:44;;;;;;;17.70;9.33;;;14.60;99.90;;;;;;5033613;28;20697;-66
2021/09/25 06:14:12;;;;;;;14.47;9.17;;;14.60;99.90;;;;;;5033736;28;20264;-63
2021/09/25 06:16:38;;;;;;;13.97;8.80;;;14.60;99.90;;;;;;5033185;28;20210;-64
2021/09/25 06:19:05;;;;;;;15.83;10.10;;;14.60;99.90;;;;;;5033867;28;20206;-64
2021/09/25 06:21:32;;;;;;;17.70;9.23;;;14.70;99.90;;;;;;5033631;28;20229;-64
2021/09/25 06:23:58;;;;;;;15.43;9.40;;;14.70;99.90;;;;;;5033357;28;20212;-64
2021/09/25 06:26:25;;;;;;;14.33;8.67;;;14.70;99.90;;;;;;5033559;28;20349;-64
2021/09/25 06:28:52;;;;;;;13.40;8.77;;;14.80;99.90;;;;;;5033469;28;20229;-64
2021/09/25 06:31:20;;;;;;;14.13;8.60;;;14.80;99.90;;;;;;5033630;28;20203;-64
2021/09/25 06:33:46;;;;;;;14.13;8.33;;;14.80;99.90;;;;;;5033831;28;20241;-64
2021/09/25 06:36:13;;;;;;;13.43;9.00;;;14.90;99.90;;;;;;5033296;28;20217;-64
2021/09/25 06:38:40;;;;;;;12.53;8.37;;;14.90;99.90;;;;;;5033805;28;20284;-64
2021/09/25 06:41:07;;;;;;;16.10;8.43;;;14.90;99.90;;;;;;5024049;28;20276;-65
2021/09/25 06:43:34;;;;;;;13.73;8.07;;;14.90;99.90;;;;;;5023046;28;20206;-65
2021/09/25 06:46:01;;;;;;;12.30;7.97;;;15.00;99.90;;;;;;5032206;28;20655;-65
2021/09/25 06:48:29;;;;;;;11.97;8.17;;;15.00;99.90;;;;;;5032655;28;20241;-64
2021/09/25 06:50:56;;;;;;;12.67;7.90;;;15.00;91.80;;;;;;5032719;28;20226;-65
2021/09/25 06:53:22;;;;;;;15.20;8.50;;;15.00;75.20;;;;;;5032757;28;20213;-65
2021/09/25 06:55:50;;;;;;;13.27;9.00;;;15.00;64.30;;;;;;5032261;28;20264;-65
2021/09/25 06:58:16;;;;;;;12.97;8.10;;;15.10;1.00;;;;;;5032256;28;20328;-65
2021/09/25 07:00:46;;;;;;;16.10;9.13;;;15.10;1.00;;;;;;5032938;28;20210;-66
2021/09/25 07:03:12;;;;;;;14.93;8.90;;;15.10;1.00;;;;;;5032302;28;20202;-65
2021/09/25 07:05:41;;;;;;;14.40;8.60;;;15.10;99.90;;;;;;5031567;28;20206;-65
2021/09/25 07:08:07;;;;;;;14.13;9.30;;;15.10;99.90;;;;;;5032616;28;20280;-65
2021/09/25 07:10:34;;;;;;;15.00;9.57;;;15.10;99.90;;;;;;5032465;28;20288;-65
2021/09/25 07:13:00;;;;;;;12.37;8.90;;;15.10;99.90;;;;;;5032932;28;20264;-64
2021/09/25 07:15:27;;;;;;;15.83;9.53;;;15.20;69.00;;;;;;5032103;28;20852;-64
2021/09/25 07:17:54;;;;;;;18.07;9.57;;;15.20;99.90;;;;;;5032713;28;20406;-65
2021/09/25 07:20:20;;;;;;;17.53;10.23;;;15.20;33.00;;;;;;5032506;28;20260;-65
2021/09/25 07:22:51;;;;;;;14.97;9.77;;;15.20;62.50;;;;;;5032570;28;20210;-64
2021/09/25 07:25:18;;;;;;;16.67;10.17;;;15.20;40.80;;;;;;5032145;28;20264;-65
2021/09/25 07:27:44;;;;;;;13.37;8.97;;;15.30;1.00;;;;;;5032581;28;20230;-65
2021/09/25 07:30:12;;;;;;;16.43;10.77;;;15.30;99.90;;;;;;5032410;28;20222;-64
2021/09/25 07:32:39;;;;;;;16.70;10.47;;;15.30;1.00;;;;;;5032345;28;20260;-65
2021/09/25 07:35:06;;;;;;;14.73;9.60;;;15.30;1.00;;;;;;5031942;28;20202;-64
2021/09/25 07:37:33;;;;;;;13.77;8.90;;;15.40;1.00;;;;;;5031784;28;20272;-65
2021/09/25 07:40:02;;;;;;;15.90;10.07;;;15.40;1.00;;;;;;5032146;28;20211;-65
2021/09/25 07:42:28;;;;;;;16.57;10.47;;;15.40;1.00;;;;;;5032331;28;20209;-65
2021/09/25 07:44:55;;;;;;;14.17;9.07;;;15.50;1.00;;;;;;5031857;28;20210;-65
2021/09/25 07:47:22;;;;;;;17.30;9.30;;;15.50;1.00;;;;;;5032137;28;20645;-65
2021/09/25 07:49:49;;;;;;;14.53;8.73;;;15.60;1.00;;;;;;5032143;28;20222;-65
2021/09/25 07:52:16;;;;;;;15.73;9.27;;;15.60;99.90;;;;;;5032046;28;20207;-65
2021/09/25 07:54:43;;;;;;;15.43;9.43;;;15.60;99.90;;;;;;5031959;28;20217;-65
2021/09/25 07:57:11;;;;;;;12.27;9.03;;;15.70;1.00;;;;;;5032001;28;20234;-65
2021/09/25 07:59:38;;;;;;;15.47;9.77;;;15.70;99.90;;;;;;5032026;28;20202;-65
2021/09/25 08:02:05;;;;;;;14.20;9.20;;;15.80;1.00;;;;;;5031857;28;20252;-65
2021/09/25 08:04:31;;;;;;;13.23;8.77;;;15.80;1.00;;;;;;5031837;28;20214;-66
2021/09/25 08:06:58;;;;;;;12.73;8.27;;;15.80;21.70;;;;;;5031539;28;20662;-65
2021/09/25 08:09:25;;;;;;;15.40;8.73;;;15.80;25.60;;;;;;5031923;28;20257;-65
2021/09/25 08:11:52;;;;;;;15.33;9.17;;;15.90;1.00;;;;;;5032112;28;20210;-65
2021/09/25 08:14:20;;;;;;;13.87;8.57;;;15.90;99.90;;;;;;5031713;28;20206;-65
2021/09/25 08:16:47;;;;;;;16.20;9.20;;;15.90;99.90;;;;;;5031373;28;20210;-65
2021/09/25 08:19:13;;;;;;;13.07;8.83;;;16.00;99.90;;;;;;5031792;28;20210;-65
2021/09/25 08:21:40;;;;;;;11.57;8.50;;;16.00;99.90;;;;;;5031490;28;20206;-65
2021/09/25 08:24:06;;;;;;;17.60;8.93;;;16.00;99.90;;;;;;5031728;28;20732;-65
2021/09/25 08:26:33;;;;;;;13.33;8.43;;;16.00;99.90;;;;;;5031273;28;20748;-66
2021/09/25 08:29:00;;;;;;;14.30;7.60;;;16.10;99.90;;;;;;5031528;28;20720;-65
2021/09/25 08:31:28;;;;;;;14.10;8.30;;;16.10;1.00;;;;;;5031551;28;20253;-65
2021/09/25 08:33:54;;;;;;;13.07;8.63;;;16.10;73.40;;;;;;5031521;28;20206;-65
2021/09/25 08:36:21;;;;;;;10.63;8.17;;;16.20;42.90;;;;;;5031250;28;20206;-65
2021/09/25 08:38:47;;;;;;;14.27;7.90;;;16.20;99.90;;;;;;5031662;28;20230;-65
2021/09/25 08:41:15;;;;;;;13.13;9.37;;;16.20;99.90;;;;;;5031678;28;20206;-65
2021/09/25 08:43:42;;;;;;;10.93;7.97;;;16.10;93.30;;;;;;5031349;28;20210;-65
2021/09/25 08:46:09;;;;;;;11.87;8.33;;;16.20;1.00;;;;;;5031237;28;20634;-65
2021/09/25 08:48:38;;;;;;;14.07;8.47;;;16.20;1.00;;;;;;5032785;28;20226;-66
2021/09/25 08:51:05;;;;;;;11.87;7.80;;;16.30;99.90;;;;;;5035530;28;20230;-64
2021/09/25 08:53:32;;;;;;;11.77;7.77;;;16.30;1.00;;;;;;5035300;28;20202;-65
2021/09/25 08:55:58;;;;;;;11.83;7.30;;;16.30;99.90;;;;;;5034892;28;20207;-65
2021/09/25 08:58:25;;;;;;;10.07;7.37;;;16.40;99.90;;;;;;5035141;28;20299;-65
2021/09/25 09:00:53;;;;;;;10.50;7.30;;;16.50;99.90;;;;;;5035497;28;20251;-65
2021/09/25 09:03:23;;;;;;;11.57;7.67;;;16.60;1.00;;;;;;5035490;28;20214;-65
2021/09/25 09:05:54;;;;;;;9.77;7.00;;;16.60;99.90;;;;;;5034940;28;20633;-66
2021/09/25 09:08:21;;;;;;;10.97;7.27;;;16.70;99.90;;;;;;5034981;28;20228;-65
2021/09/25 09:10:48;;;;;;;10.67;7.43;;;16.70;1.00;;;;;;5035015;28;20252;-66
2021/09/25 09:13:16;;;;;;;10.20;7.37;;;16.80;1.00;;;;;;5035111;28;20202;-65
2021/09/25 09:15:44;;;;;;;9.40;6.60;;;16.80;1.00;;;;;;5034314;28;20233;-65
2021/09/25 09:18:14;;;;;;;8.93;6.60;;;16.80;99.90;;;;;;5035026;28;20322;-66
2021/09/25 09:20:54;;;;;;;12.43;7.10;;;16.80;1.00;;;;;;5034802;28;20259;-65
2021/09/25 09:23:22;;;;;;;10.23;6.70;;;16.80;99.90;;;;;;5034844;28;20212;-65
2021/09/25 09:25:49;;;;;;;11.20;7.17;;;16.90;99.90;;;;;;5034384;28;20264;-65
2021/09/25 09:28:23;;;;;;;10.03;6.60;;;16.90;1.00;;;;;;5034302;28;20230;-65
2021/09/25 09:30:51;;;;;;;8.83;6.30;;;16.90;28.10;;;;;;5034718;28;20231;-65
2021/09/25 09:33:29;;;;;;;8.10;6.17;;;17.00;99.90;;;;;;5034583;28;20260;-65
2021/09/25 09:36:24;;;;;;;8.73;6.67;;;17.10;99.90;;;;;;5034241;28;20206;-65
2021/09/25 09:38:55;;;;;;;10.37;6.30;;;17.10;1.00;;;;;;5034603;28;20269;-66
2021/09/25 09:41:28;;;;;;;10.20;6.00;;;17.20;99.90;;;;;;5034627;28;20344;-66
2021/09/25 09:43:57;;;;;;;11.00;6.50;;;17.30;1.00;;;;;;5034443;28;20630;-64
2021/09/25 09:46:32;;;;;;;9.27;5.93;;;17.30;1.00;;;;;;5034074;28;20210;-66
2021/09/25 09:48:59;;;;;;;11.07;6.13;;;17.40;99.90;;;;;;5033990;28;20279;-65
2021/09/25 09:51:48;;;;;;;11.50;6.33;;;17.50;99.90;;;;;;5034354;28;20318;-66
2021/09/25 09:54:19;;;;;;;9.80;7.00;;;17.40;99.90;;;;;;5034309;28;20210;-65
2021/09/25 09:56:46;;;;;;;11.40;6.67;;;17.40;99.90;;;;;;5033496;28;20210;-65
2021/09/25 09:59:14;;;;;;;9.40;7.13;;;17.30;99.90;;;;;;5033577;28;20206;-65
2021/09/25 10:01:42;;;;;;;11.07;7.17;;;17.40;99.90;;;;;;5033844;28;20297;-65
2021/09/25 10:04:09;;;;;;;10.60;7.17;;;17.40;99.90;;;;;;5034235;28;20592;-65
2021/09/25 10:06:37;;;;;;;11.70;7.23;;;17.60;99.90;;;;;;5033606;28;20211;-65
2021/09/25 10:09:07;;;;;;;11.00;6.77;;;17.60;39.20;;;;;;5033946;28;20234;-65
2021/09/25 10:11:36;;;;;;;9.13;5.80;;;17.70;99.90;;;;;;5033797;28;20226;-65
2021/09/25 10:14:03;;;;;;;10.93;6.97;;;17.80;29.90;;;;;;5033698;28;20214;-65
2021/09/25 10:16:31;;;;;;;11.40;6.20;;;17.80;1.00;;;;;;5033641;28;20206;-66
2021/09/25 10:18:58;;;;;;;10.33;7.57;;;17.90;99.90;;;;;;5034119;28;20583;-65
2021/09/25 10:21:26;;;;;;;8.43;6.33;;;17.90;1.00;;;;;;5033922;28;20256;-65
2021/09/25 10:23:58;;;;;;;15.40;7.10;;;17.90;1.00;;;;;;5033689;28;20256;-65
2021/09/25 10:26:26;;;;;;;7.83;6.67;;;17.90;99.90;;;;;;5033068;28;20210;-65
2021/09/25 10:28:57;;;;;;;10.00;6.50;;;17.90;1.00;;;;;;5033471;28;20280;-65
2021/09/25 10:31:24;;;;;;;7.80;5.83;;;18.00;99.90;;;;;;5033612;28;20230;-65
2021/09/25 10:34:12;;;;;;;7.53;6.13;;;18.20;1.00;;;;;;5025131;28;20934;-66
2021/09/25 10:36:42;;;;;;;10.07;6.13;;;18.30;99.90;;;;;;5012445;28;20207;-65
2021/09/25 10:39:28;;;;;;;8.97;6.67;;;18.30;99.90;;;;;;5012993;28;20211;-65
2021/09/25 10:42:02;;;;;;;10.60;6.07;;;18.40;99.90;;;;;;5013043;28;20293;-65
2021/09/25 10:44:33;;;;;;;11.33;6.50;;;18.50;99.90;;;;;;5011794;28;20207;-65
2021/09/25 10:47:11;;;;;;;10.50;6.87;;;18.40;99.90;;;;;;5012760;28;20231;-64
2021/09/25 10:49:50;;;;;;;7.63;5.87;;;18.50;99.90;;;;;;5013042;28;20206;-64
2021/09/25 10:52:20;;;;;;;8.87;6.70;;;18.60;99.90;;;;;;5013103;28;20782;-64
2021/09/25 10:55:27;;;;;;;9.87;6.33;;;18.80;99.90;;;;;;5011825;28;20226;-65
2021/09/25 10:58:28;;;;;;;9.53;6.43;;;19.00;99.90;;;;;;5012551;28;20242;-64
2021/09/25 11:01:05;;;;;;;8.50;6.40;;;19.10;99.90;;;;;;5011483;28;20242;-64
2021/09/25 11:03:54;;;;;;;10.57;7.03;;;19.20;19.90;;;;;;5012920;28;20238;-65
2021/09/25 11:06:23;;;;;;;13.13;7.23;;;19.30;18.40;;;;;;5011619;28;20281;-64
2021/09/25 11:08:53;;;;;;;8.43;7.00;;;19.30;1.00;;;;;;5012329;28;20233;-63
2021/09/25 11:11:30;;;;;;;8.33;7.20;;;19.40;1.00;;;;;;5011857;28;20285;-63
2021/09/25 11:14:24;;;;;;;8.87;7.23;;;19.50;1.00;;;;;;5012437;28;20215;-65
2021/09/25 11:16:59;;;;;;;9.83;7.63;;;19.50;1.00;;;;;;5012494;28;20241;-65
2021/09/25 11:19:44;;;;;;;8.87;7.67;;;19.40;1.00;;;;;;5011767;28;20210;-69
2021/09/25 11:22:14;;;;;;;11.60;7.47;;;19.50;1.00;;;;;;5012287;28;20210;-68
2021/09/25 11:24:43;;;;;;;8.70;7.10;;;19.70;1.00;;;;;;5011478;28;20265;-63
2021/09/25 11:27:13;;;;;;;9.70;6.53;;;19.80;1.00;;;;;;5011561;28;20239;-64
2021/09/25 11:29:59;;;;;;;11.17;7.40;;;20.00;1.00;;;;;;5012578;28;20260;-64
2021/09/25 11:32:29;;;;;;;9.23;7.13;;;20.00;1.00;;;;;;5011158;28;20237;-65
2021/09/25 11:34:57;;;;;;;11.77;7.67;;;20.00;1.00;;;;;;5011447;28;20218;-64
2021/09/25 11:37:24;;;;;;;8.50;6.57;;;20.20;1.00;;;;;;5011754;28;20258;-63
2021/09/25 11:39:52;;;;;;;8.87;6.23;;;20.40;1.00;;;;;;5012255;28;20226;-63
2021/09/25 11:42:20;;;;;;;8.97;7.10;;;20.40;1.00;;;;;;5012008;28;20202;-63
2021/09/25 11:44:51;;;;;;;8.83;6.33;;;20.40;1.00;;;;;;5011602;28;20210;-65
2021/09/25 11:47:24;;;;;;;11.30;7.13;;;20.30;1.00;;;;;;5012046;28;20231;-65
2021/09/25 11:49:52;;;;;;;8.07;6.20;;;20.30;1.00;;;;;;5011575;28;20218;-65
2021/09/25 11:52:19;;;;;;;12.50;7.17;;;20.40;1.00;;;;;;5012120;28;20635;-66
2021/09/25 11:54:46;;;;;;;14.73;7.67;;;20.50;1.00;;;;;;5011146;28;20207;-65
2021/09/25 11:57:14;;;;;;;8.07;6.43;;;20.40;1.00;;;;;;5011612;28;20242;-64
2021/09/25 11:59:41;;;;;;;9.17;5.80;;;20.20;1.00;;;;;;5011714;28;20730;-68
2021/09/25 12:02:08;;;;;;;10.23;7.27;;;20.40;1.00;;;;;;5010698;28;20207;-67
2021/09/25 12:04:39;;;;;;;9.50;6.73;;;20.20;1.00;;;;;;5010747;28;20210;-63
2021/09/25 12:07:07;;;;;;;10.70;6.63;;;20.30;1.00;;;;;;5010706;28;20862;-63
2021/09/25 12:09:45;;;;;;;8.90;7.30;;;20.30;1.00;;;;;;5010342;28;20312;-63
2021/09/25 12:12:12;;;;;;;8.87;6.80;;;19.90;1.00;;;;;;5011549;28;20262;-63
2021/09/25 12:14:43;;;;;;;11.60;6.23;;;20.00;1.00;;;;;;5011528;28;20222;-63
2021/09/25 12:17:12;;;;;;;9.70;6.83;;;20.20;1.00;;;;;;5011762;28;20230;-63
2021/09/25 12:19:38;;;;;;;8.97;5.90;;;20.20;1.00;;;;;;5012015;28;20243;-63
2021/09/25 12:22:08;;;;;;;8.07;5.07;;;20.30;1.00;;;;;;5011762;28;20848;-63
2021/09/25 12:24:34;;;;;;;8.77;5.67;;;20.40;1.00;;;;;;5015194;28;20242;-63
2021/09/25 12:27:01;;;;;;;7.77;5.43;;;20.40;1.00;;;;;;5015741;28;20222;-62
2021/09/25 12:29:34;;;;;;;7.67;5.53;;;20.30;1.00;;;;;;5015318;28;20256;-63
2021/09/25 12:32:02;;;;;;;9.40;5.77;;;20.30;1.00;;;;;;5015471;28;20227;-63
2021/09/25 12:34:29;;;;;;;8.13;5.87;;;20.20;1.00;;;;;;5015336;28;20213;-63
2021/09/25 12:36:59;;;;;;;9.53;6.60;;;20.30;1.00;;;;;;5015330;28;20752;-64
2021/09/25 12:39:29;;;;;;;20.63;15.50;;;20.10;1.00;;;;;;5014897;28;20226;-62
2021/09/25 12:41:58;;;;;;;8.67;6.60;;;20.20;1.00;;;;;;5013867;28;20207;-63
2021/09/25 12:44:27;;;;;;;7.03;5.73;;;20.40;1.00;;;;;;5015114;28;20207;-64
2021/09/25 12:46:56;;;;;;;9.07;6.20;;;20.60;1.00;;;;;;5014931;28;20222;-63
2021/09/25 12:49:25;;;;;;;8.97;5.50;;;20.70;1.00;;;;;;5014549;28;20207;-63